createdAt,value
2018-03-20T00:03:59.995Z,-1.46
2018-03-20T00:08:55.722Z,-1.35
2018-03-20T00:18:57.221Z,-1.47
2018-03-20T00:23:57.048Z,-1.43
2018-03-20T00:28:55.878Z,-1.38
2018-03-20T00:33:54.567Z,-1.41
2018-03-20T00:38:55.102Z,-1.33
2018-03-20T00:48:52.727Z,-0.94
2018-03-20T00:59:01.277Z,-0.71
2018-03-20T01:03:58.765Z,-0.61
2018-03-20T01:08:56.075Z,-0.47
2018-03-20T01:14:00.261Z,-0.46
2018-03-20T01:19:00.805Z,-0.34
2018-03-20T01:29:03.128Z,-0.28
2018-03-20T01:33:58.113Z,-0.20
2018-03-20T01:38:59.506Z,-0.02
2018-03-20T01:43:57.224Z," 0.10"
2018-03-20T01:48:58.868Z," 0.05"
2018-03-20T01:53:58.698Z," 0.12"
2018-03-20T01:58:58.927Z," 0.11"
2018-03-20T02:03:59.668Z," 0.21"
2018-03-20T02:09:03.367Z," 0.25"
2018-03-20T02:19:03.363Z," 0.31"
2018-03-20T02:24:01.455Z," 0.26"
2018-03-20T02:28:58.185Z," 0.29"
2018-03-20T02:33:59.550Z," 0.40"
2018-03-20T02:39:00.004Z," 0.40"
2018-03-20T02:43:56.977Z," 0.58"
2018-03-20T02:48:58.427Z," 0.60"
2018-03-20T02:54:00.624Z," 0.63"
2018-03-20T02:58:56.765Z," 0.47"
2018-03-20T03:03:56.640Z," 0.44"
2018-03-20T03:08:56.833Z," 0.36"
2018-03-20T03:13:55.616Z," 0.40"
2018-03-20T03:18:54.544Z," 0.32"
2018-03-20T03:23:50.727Z," 0.29"
2018-03-20T03:28:51.537Z," 0.34"
2018-03-20T03:38:51.997Z," 0.52"
2018-03-20T03:43:47.336Z," 0.59"
2018-03-20T03:48:49.115Z," 0.63"
2018-03-20T03:53:44.553Z," 0.70"
2018-03-20T03:58:43.953Z," 0.73"
2018-03-20T04:08:54.266Z," 0.78"
2018-03-20T04:13:50.915Z," 0.80"
2018-03-20T04:18:47.386Z," 0.80"
2018-03-20T04:23:43.403Z," 0.86"
2018-03-20T04:28:45.194Z," 0.92"
2018-03-20T04:33:48.084Z," 0.91"
2018-03-20T04:38:48.644Z," 1.01"
2018-03-20T04:43:48.986Z," 1.02"
2018-03-20T04:48:49.815Z," 1.02"
2018-03-20T04:53:45.164Z," 1.05"
2018-03-20T04:58:45.901Z," 1.14"
2018-03-20T05:03:41.239Z," 1.13"
2018-03-20T05:08:38.072Z," 1.17"
2018-03-20T05:13:39.574Z," 1.24"
2018-03-20T05:18:39.228Z," 1.42"
2018-03-20T05:28:36.787Z," 1.45"
2018-03-20T05:38:36.624Z," 1.48"
2018-03-20T05:43:36.936Z," 1.55"
2018-03-20T05:53:34.989Z," 1.67"
2018-03-20T05:58:34.753Z," 1.74"
2018-03-20T06:03:32.919Z," 1.71"
2018-03-20T06:08:32.845Z," 1.80"
2018-03-20T06:13:28.774Z," 1.97"
2018-03-20T06:18:25.196Z," 2.14"
2018-03-20T06:23:21.702Z," 2.15"
2018-03-20T06:28:22.734Z," 2.15"
2018-03-20T06:38:24.602Z," 2.33"
2018-03-20T06:43:21.985Z," 2.35"
2018-03-20T06:48:22.562Z," 2.38"
2018-03-20T06:53:18.467Z," 2.39"
2018-03-20T06:58:20.218Z," 2.42"
2018-03-20T07:03:14.909Z," 2.44"
2018-03-20T07:08:15.514Z," 2.60"
2018-03-20T07:13:12.249Z," 2.64"
2018-03-20T07:18:12.643Z," 2.62"
2018-03-20T07:23:09.858Z," 2.65"
2018-03-20T07:28:10.065Z," 2.64"
2018-03-20T07:33:08.761Z," 2.79"
2018-03-20T07:38:08.933Z," 2.90"
2018-03-20T07:43:08.636Z," 2.82"
2018-03-20T07:48:07.259Z," 2.87"
2018-03-20T07:53:07.136Z," 3.00"
2018-03-20T07:58:02.287Z," 3.10"
2018-03-20T08:03:03.309Z," 3.68"
2018-03-20T08:08:03.195Z," 4.13"
2018-03-20T08:13:02.794Z," 4.20"
2018-03-20T08:18:02.016Z," 4.35"
2018-03-20T08:22:57.219Z," 4.63"
2018-03-20T08:27:59.259Z," 4.45"
2018-03-20T08:32:59.417Z," 4.05"
2018-03-20T08:38:00.343Z," 4.16"
2018-03-20T08:43:01.144Z," 4.42"
2018-03-20T08:48:02.022Z," 4.45"
2018-03-20T08:52:58.161Z," 4.86"
2018-03-20T08:57:57.710Z," 4.62"
2018-03-20T09:02:52.522Z," 4.40"
2018-03-20T09:07:48.354Z," 4.68"
2018-03-20T09:12:45.465Z," 4.71"
2018-03-20T09:17:42.359Z," 5.02"
2018-03-20T09:22:38.586Z," 5.12"
2018-03-20T09:27:34.764Z," 5.21"
2018-03-20T09:32:30.569Z," 5.14"
2018-03-20T09:37:31.139Z," 5.11"
2018-03-20T09:42:31.996Z," 5.12"
2018-03-20T09:47:31.978Z," 5.65"
2018-03-20T09:52:26.733Z," 5.73"
2018-03-20T09:57:22.517Z," 5.71"
2018-03-20T10:02:18.673Z," 5.75"
2018-03-20T10:07:19.331Z," 5.75"
2018-03-20T10:12:14.919Z," 5.97"
2018-03-20T10:17:11.522Z," 6.12"
2018-03-20T10:22:07.230Z," 6.36"
2018-03-20T10:27:04.869Z," 6.52"
2018-03-20T10:32:04.324Z," 6.57"
2018-03-20T10:36:59.489Z," 7.10"
2018-03-20T10:42:01.346Z," 7.21"
2018-03-20T10:47:01.677Z," 7.25"
2018-03-20T10:52:00.685Z," 7.32"
2018-03-20T10:56:58.158Z," 8.09"
2018-03-20T11:01:54.632Z," 8.33"
2018-03-20T11:06:52.531Z," 8.19"
2018-03-20T11:11:54.753Z," 8.63"
2018-03-20T11:16:50.935Z," 8.27"
2018-03-20T11:21:48.953Z," 8.24"
2018-03-20T11:26:49.206Z," 8.15"
2018-03-20T11:36:51.157Z," 8.99"
2018-03-20T11:41:46.749Z," 9.46"
2018-03-20T11:46:46.961Z," 9.00"
2018-03-20T11:51:47.781Z," 9.31"
2018-03-20T11:56:46.808Z," 8.69"
2018-03-20T12:01:42.817Z," 9.16"
2018-03-20T12:06:38.813Z," 9.44"
2018-03-20T12:11:36.708Z," 8.92"
2018-03-20T12:16:36.087Z," 9.86"
2018-03-20T12:21:32.270Z," 9.98"
2018-03-20T12:26:31.542Z," 8.48"
2018-03-20T12:31:26.506Z," 8.89"
2018-03-20T12:36:25.862Z," 9.19"
2018-03-20T12:41:21.436Z," 8.69"
2018-03-20T12:46:16.172Z," 8.67"
2018-03-20T12:51:16.164Z," 8.84"
2018-03-20T12:56:10.980Z," 8.89"
2018-03-20T13:01:10.938Z," 8.49"
2018-03-20T13:06:09.222Z," 8.30"
2018-03-20T13:11:08.793Z," 8.55"
2018-03-20T13:16:07.439Z," 8.97"
2018-03-20T13:21:06.568Z," 8.97"
2018-03-20T13:26:03.083Z," 9.11"
2018-03-20T13:31:02.593Z," 8.70"
2018-03-20T13:35:57.048Z," 8.16"
2018-03-20T13:40:52.663Z," 8.61"
2018-03-20T13:45:49.057Z," 8.70"
2018-03-20T13:50:52.604Z," 8.27"
2018-03-20T13:55:47.991Z," 8.01"
2018-03-20T14:00:44.043Z," 8.28"
2018-03-20T14:05:40.639Z," 8.61"
2018-03-20T14:10:40.829Z," 8.85"
2018-03-20T14:15:41.919Z," 8.31"
2018-03-20T14:20:41.099Z," 7.98"
2018-03-20T14:25:36.276Z," 7.79"
2018-03-20T14:30:31.970Z," 8.05"
2018-03-20T14:35:33.129Z," 8.19"
2018-03-20T14:40:32.934Z," 7.97"
2018-03-20T14:45:31.731Z," 8.30"
2018-03-20T14:50:26.308Z," 7.98"
2018-03-20T14:55:23.486Z," 7.85"
2018-03-20T15:00:18.611Z," 8.12"
2018-03-20T15:05:19.460Z," 7.94"
2018-03-20T15:10:14.244Z," 8.01"
2018-03-20T15:15:09.835Z," 7.63"
2018-03-20T15:20:09.415Z," 7.36"
2018-03-20T15:25:04.051Z," 7.54"
2018-03-20T15:30:03.955Z," 7.66"
2018-03-20T15:35:02.659Z," 7.48"
2018-03-20T15:40:01.436Z," 7.50"
2018-03-20T15:45:01.312Z," 7.36"
2018-03-20T15:49:55.688Z," 7.35"
2018-03-20T15:54:51.190Z," 7.25"
2018-03-20T15:59:48.141Z," 7.17"
2018-03-20T16:04:47.746Z," 7.15"
2018-03-20T16:09:42.773Z," 7.15"
2018-03-20T16:14:42.181Z," 7.03"
2018-03-20T16:19:36.944Z," 6.88"
2018-03-20T16:24:33.728Z," 6.96"
2018-03-20T16:29:30.924Z," 6.77"
2018-03-20T16:34:30.520Z," 6.64"
2018-03-20T16:39:25.265Z," 6.75"
2018-03-20T16:44:21.959Z," 6.69"
2018-03-20T16:49:18.107Z," 6.51"
2018-03-20T16:54:17.639Z," 6.63"
2018-03-20T16:59:16.383Z," 6.44"
2018-03-20T17:04:12.156Z," 6.38"
2018-03-20T17:09:08.387Z," 6.26"
2018-03-20T17:14:03.690Z," 6.30"
2018-03-20T17:19:03.014Z," 6.02"
2018-03-20T17:23:57.854Z," 5.98"
2018-03-20T17:28:53.336Z," 5.84"
2018-03-20T17:33:49.056Z," 5.89"
2018-03-20T17:38:45.627Z," 5.75"
2018-03-20T17:43:42.205Z," 5.59"
2018-03-20T17:48:41.788Z," 5.57"
2018-03-20T17:53:37.439Z," 5.43"
2018-03-20T17:58:37.115Z," 5.30"
2018-03-20T18:03:32.959Z," 5.20"
2018-03-20T18:08:29.157Z," 5.11"
2018-03-20T18:13:24.480Z," 4.96"
2018-03-20T18:18:20.001Z," 4.90"
2018-03-20T18:23:15.551Z," 4.78"
2018-03-20T18:28:11.084Z," 4.77"
2018-03-20T18:33:06.874Z," 4.67"
2018-03-20T18:38:02.367Z," 4.56"
2018-03-20T18:43:02.825Z," 4.48"
2018-03-20T18:47:57.523Z," 4.45"
2018-03-20T18:52:53.080Z," 4.32"
2018-03-20T18:57:49.677Z," 4.14"
2018-03-20T19:02:45.118Z," 3.99"
2018-03-20T19:07:40.793Z," 3.87"
2018-03-20T19:12:37.334Z," 3.87"
2018-03-20T19:17:36.584Z," 3.86"
2018-03-20T19:22:35.115Z," 3.77"
2018-03-20T19:27:33.686Z," 3.68"
2018-03-20T19:32:32.266Z," 3.63"
2018-03-20T19:37:26.964Z," 3.65"
2018-03-20T19:42:26.577Z," 3.70"
2018-03-20T19:47:21.358Z," 3.63"
2018-03-20T19:52:17.049Z," 3.55"
2018-03-20T19:57:12.668Z," 3.53"
2018-03-20T20:02:08.349Z," 3.47"
2018-03-20T20:07:04.598Z," 3.32"
2018-03-20T20:12:01.241Z," 3.37"
2018-03-20T20:16:57.510Z," 3.26"
2018-03-20T20:21:53.978Z," 3.26"
2018-03-20T20:26:54.098Z," 3.10"
2018-03-20T20:31:48.576Z," 2.90"
2018-03-20T20:36:45.349Z," 2.90"
2018-03-20T20:41:45.002Z," 2.90"
2018-03-20T20:46:43.514Z," 3.00"
2018-03-20T20:51:38.208Z," 2.71"
2018-03-20T20:56:35.451Z," 2.80"
2018-03-20T21:01:31.785Z," 2.64"
2018-03-20T21:06:27.187Z," 2.53"
2018-03-20T21:11:23.417Z," 2.61"
2018-03-20T21:16:19.546Z," 2.65"
2018-03-20T21:21:15.903Z," 2.60"
2018-03-20T21:26:15.346Z," 2.49"
2018-03-20T21:31:10.055Z," 2.42"
2018-03-20T21:36:10.680Z," 2.39"
2018-03-20T21:41:05.270Z," 2.29"
2018-03-20T21:46:02.151Z," 2.28"
2018-03-20T21:50:58.589Z," 2.44"
2018-03-20T21:55:53.998Z," 2.14"
2018-03-20T22:00:50.768Z," 2.11"
2018-03-20T22:05:50.821Z," 2.04"
2018-03-20T22:10:48.984Z," 2.06"
2018-03-20T22:15:43.739Z," 1.97"
2018-03-20T22:20:39.697Z," 1.91"
2018-03-20T22:25:35.424Z," 1.94"
2018-03-20T22:30:31.808Z," 1.95"
2018-03-20T22:35:28.260Z," 1.84"
2018-03-20T22:40:24.677Z," 1.84"
2018-03-20T22:45:23.983Z," 1.77"
2018-03-20T22:50:22.586Z," 1.76"
2018-03-20T22:55:22.198Z," 1.73"
2018-03-20T23:00:17.841Z," 1.68"
2018-03-20T23:05:13.232Z," 1.56"
2018-03-20T23:10:13.018Z," 1.56"
2018-03-20T23:15:07.830Z," 1.42"
2018-03-20T23:20:03.287Z," 1.23"
2018-03-20T23:25:02.931Z," 1.28"
2018-03-20T23:30:01.656Z," 1.30"
2018-03-20T23:35:00.109Z," 1.08"
2018-03-20T23:39:54.805Z," 1.08"
2018-03-20T23:44:54.209Z," 1.06"
2018-03-20T23:49:53.841Z," 1.12"
2018-03-20T23:54:52.565Z," 1.12"
2018-03-20T23:59:47.229Z," 1.02"
